Time;durP1;ratioP1;P1;durP2;ratioP2;P2;SDS_P1;SDS_P2;PMS_P1;PMS_P2;Temp;Humidity;BMP_temperature;BMP_pressure;BME280_temperature;BME280_humidity;BME280_pressure;Samples;Min_cycle;Max_cycle;Signal;HPM_P1;HPM_P2
2022/02/21 00:00:06;;;;;;;26.15;14.75;;;;;;;4.51;95.93;100649.59;4974467;28;20042;-77
2022/02/21 00:02:31;;;;;;;26.67;15.93;;;;;;;4.53;95.97;100648.03;4990887;28;20400;-75
2022/02/21 00:04:57;;;;;;;32.13;15.07;;;;;;;4.77;95.79;100642.69;4990884;28;20045;-79
2022/02/21 00:07:22;;;;;;;25.98;14.38;;;;;;;4.95;94.92;100640.44;4990929;28;20049;-74
2022/02/21 00:09:48;;;;;;;32.65;14.20;;;;;;;5.06;94.23;100641.06;4990639;28;20095;-79
2022/02/21 00:12:14;;;;;;;27.33;13.20;;;;;;;4.95;94.24;100602.91;5008172;28;20042;-75
2022/02/21 00:14:40;;;;;;;29.35;15.07;;;;;;;5.12;93.34;100614.19;5012717;28;20034;-77
2022/02/21 00:17:06;;;;;;;31.15;13.98;;;;;;;5.33;93.12;100649.56;4994785;28;20034;-78
2022/02/21 00:19:31;;;;;;;28.52;14.13;;;;;;;5.36;93.06;100649.75;4994041;28;20042;-77
2022/02/21 00:21:57;;;;;;;26.95;13.18;;;;;;;5.38;93.00;100631.94;5012410;28;20392;-76
2022/02/21 00:24:22;;;;;;;31.15;14.75;;;;;;;5.52;92.12;100654.13;5012154;28;20412;-75
2022/02/21 00:26:48;;;;;;;29.98;13.70;;;;;;;5.57;90.98;100642.50;5012125;28;20030;-77
2022/02/21 00:29:13;;;;;;;27.70;13.68;;;;;;;5.51;91.05;100643.00;5012410;28;20022;-77
2022/02/21 00:31:39;;;;;;;31.67;11.80;;;;;;;5.18;93.20;100635.06;5012238;28;20026;-77
2022/02/21 00:34:04;;;;;;;35.25;11.35;;;;;;;5.04;94.94;100622.19;5012243;28;20095;-80
2022/02/21 00:36:31;;;;;;;17.42;8.95;;;;;;;4.73;95.90;100548.69;5012029;28;20060;-77
2022/02/21 00:38:56;;;;;;;12.98;7.93;;;;;;;5.26;97.22;100611.56;5012015;28;20037;-79
2022/02/21 00:41:22;;;;;;;17.45;9.13;;;;;;;5.30;97.31;100608.44;5012454;28;20026;-77
2022/02/21 00:43:47;;;;;;;11.82;7.88;;;;;;;5.55;95.19;100623.56;5012026;28;20037;-76
2022/02/21 00:46:12;;;;;;;12.25;7.75;;;;;;;5.57;94.56;100614.31;5012021;28;20117;-77
2022/02/21 00:48:38;;;;;;;12.52;7.50;;;;;;;5.51;94.65;100606.28;5011278;28;20477;-77
2022/02/21 00:51:03;;;;;;;19.40;8.85;;;;;;;5.71;95.09;100611.66;5011871;28;20045;-76
2022/02/21 00:53:29;;;;;;;13.43;7.90;;;;;;;5.75;95.15;100604.25;5009610;28;20057;-80
2022/02/21 00:55:54;;;;;;;16.15;7.63;;;;;;;5.87;94.58;100603.19;5011760;28;20155;-77
2022/02/21 00:58:23;;;;;;;15.55;9.02;;;;;;;5.51;95.09;100617.38;5009606;28;20412;-77
2022/02/21 01:00:48;;;;;;;24.77;11.90;;;;;;;5.00;96.37;100639.03;5011755;28;20108;-78
2022/02/21 01:03:14;;;;;;;25.83;13.35;;;;;;;4.70;96.44;100619.28;5011741;28;20112;-77
2022/02/21 01:05:40;;;;;;;30.98;16.02;;;;;;;4.27;97.85;100605.47;5011417;28;20477;-77
2022/02/21 01:08:09;;;;;;;42.80;18.40;;;;;;;4.54;97.00;100614.00;5011334;28;20149;-77
2022/02/21 01:10:38;;;;;;;39.67;18.53;;;;;;;4.47;96.42;100593.94;5011761;28;20096;-76
2022/02/21 01:13:05;;;;;;;39.92;17.65;;;;;;;4.34;96.45;100554.81;5011634;28;20030;-77
2022/02/21 01:15:31;;;;;;;34.08;15.50;;;;;;;4.74;96.41;100589.69;5011284;28;20041;-77
2022/02/21 01:17:56;;;;;;;30.95;16.15;;;;;;;4.80;96.17;100568.72;5011321;28;20030;-74
2022/02/21 01:20:22;;;;;;;29.60;15.40;;;;;;;4.94;95.60;100567.88;5011340;28;20411;-76
2022/02/21 01:22:47;;;;;;;40.78;16.15;;;;;;;5.00;94.77;100578.50;5010969;28;20109;-76
2022/02/21 01:25:13;;;;;;;32.65;15.68;;;;;;;4.75;95.98;100578.66;5011238;28;20404;-75
2022/02/21 01:27:39;;;;;;;33.72;15.10;;;;;;;4.59;97.32;100584.50;5011301;28;20033;-76
2022/02/21 01:30:06;;;;;;;35.33;15.25;;;;;;;4.54;98.20;100570.53;5011320;28;20053;-75
2022/02/21 01:32:32;;;;;;;31.10;15.38;;;;;;;4.55;98.11;100562.09;5011379;28;20056;-77
2022/02/21 01:34:57;;;;;;;35.65;15.38;;;;;;;4.46;98.13;100541.03;5011091;28;20057;-75
2022/02/21 01:37:23;;;;;;;35.17;15.18;;;;;;;4.73;97.65;100558.91;5009894;28;20037;-74
2022/02/21 01:39:48;;;;;;;36.67;16.80;;;;;;;4.66;97.41;100535.50;5010910;28;20030;-80
2022/02/21 01:42:14;;;;;;;31.73;15.15;;;;;;;4.99;97.17;100552.81;5011185;28;20029;-76
2022/02/21 01:44:42;;;;;;;30.60;15.75;;;;;;;4.95;96.68;100544.06;5011014;28;20543;-79
2022/02/21 01:47:14;;;;;;;31.13;16.00;;;;;;;5.09;96.66;100552.59;5010980;28;20022;-79
2022/02/21 01:49:40;;;;;;;35.50;15.00;;;;;;;5.06;95.37;100546.38;5011031;28;20068;-74
2022/02/21 01:52:06;;;;;;;29.05;16.00;;;;;;;5.16;95.14;100566.66;5018565;28;20085;-78
2022/02/21 01:54:32;;;;;;;31.33;14.95;;;;;;;5.09;95.65;100547.47;5030323;28;20026;-77
2022/02/21 01:56:58;;;;;;;31.60;15.35;;;;;;;5.08;95.48;100524.34;5030692;28;20033;-77
2022/02/21 01:59:26;;;;;;;34.40;14.45;;;;;;;5.04;94.38;100504.50;5030570;28;20400;-74
2022/02/21 02:01:52;;;;;;;23.17;13.05;;;;;;;5.02;94.63;100545.31;5030445;28;20017;-78
2022/02/21 02:04:18;;;;;;;23.40;11.55;;;;;;;4.96;96.08;100553.53;5030339;28;20408;-78
2022/02/21 02:06:43;;;;;;;24.15;12.45;;;;;;;4.76;96.89;100542.09;5030685;28;20026;-76
2022/02/21 02:09:09;;;;;;;25.05;12.13;;;;;;;4.64;97.22;100547.31;5011754;28;20103;-76
2022/02/21 02:11:36;;;;;;;24.98;11.98;;;;;;;4.30;98.07;100511.06;5030834;28;20022;-75
2022/02/21 02:14:05;;;;;;;20.20;12.15;;;;;;;4.53;97.99;100543.22;5012938;28;20025;-78
2022/02/21 02:16:31;;;;;;;21.65;13.05;;;;;;;4.65;97.02;100543.97;5030328;28;20033;-76
2022/02/21 02:18:56;;;;;;;20.55;11.70;;;;;;;4.85;96.69;100570.78;5030304;28;20037;-74
2022/02/21 02:21:28;;;;;;;18.45;11.25;;;;;;;4.77;95.36;100545.50;5030646;28;20095;-74
2022/02/21 02:23:55;;;;;;;24.27;11.50;;;;;;;4.68;96.40;100553.50;5030325;28;20068;-75
2022/02/21 02:26:22;;;;;;;19.10;11.50;;;;;;;4.67;96.65;100554.28;5030201;28;20034;-74
2022/02/21 02:28:51;;;;;;;24.30;11.93;;;;;;;4.57;97.29;100542.59;5030470;28;20026;-77
2022/02/21 02:31:17;;;;;;;23.05;12.10;;;;;;;4.59;98.35;100561.47;5030107;28;20473;-76
2022/02/21 02:33:42;;;;;;;23.58;11.55;;;;;;;4.62;98.83;100563.34;5030225;28;20388;-78
2022/02/21 02:36:09;;;;;;;23.48;12.30;;;;;;;4.62;99.46;100565.91;4979039;28;20103;-79
2022/02/21 02:38:39;;;;;;;21.42;14.23;;;;;;;4.65;99.45;100554.19;5030280;28;20034;-77
2022/02/21 02:41:09;;;;;;;43.88;21.98;;;;;;;4.83;98.57;100557.00;5029989;28;20049;-78
2022/02/21 02:43:38;;;;;;;85.32;36.60;;;;;;;4.81;97.61;100545.81;5030043;28;20037;-79
2022/02/21 02:46:04;;;;;;;75.88;39.03;;;;;;;4.86;96.09;100546.97;5030105;28;20085;-76
2022/02/21 02:48:29;;;;;;;40.65;25.73;;;;;;;4.82;95.40;100541.56;5030426;28;20072;-74
2022/02/21 02:50:56;;;;;;;25.40;14.60;;;;;;;4.86;95.22;100548.66;5030037;28;20504;-75
2022/02/21 02:53:21;;;;;;;27.13;13.40;;;;;;;4.72;95.44;100535.00;5029998;28;20046;-75
2022/02/21 02:55:47;;;;;;;18.08;12.27;;;;;;;4.73;95.88;100552.09;5030265;28;20038;-77
2022/02/21 02:58:12;;;;;;;22.98;13.95;;;;;;;4.59;96.93;100548.69;5029987;28;20057;-76
2022/02/21 03:00:37;;;;;;;27.48;13.00;;;;;;;4.50;98.09;100559.25;5029988;28;20045;-74
2022/02/21 03:03:03;;;;;;;21.08;13.27;;;;;;;4.25;99.24;100535.47;5030263;28;20038;-74
2022/02/21 03:05:29;;;;;;;23.85;13.63;;;;;;;4.19;100.00;100523.22;5030121;28;20035;-74
2022/02/21 03:07:54;;;;;;;21.27;12.73;;;;;;;4.63;99.83;100570.25;5012181;28;20025;-79
2022/02/21 03:10:19;;;;;;;21.58;12.77;;;;;;;4.66;98.48;100561.09;5029770;28;20028;-77
2022/02/21 03:12:45;;;;;;;26.77;13.50;;;;;;;4.64;98.26;100572.88;5031456;28;20036;-74
2022/02/21 03:15:11;;;;;;;22.15;13.10;;;;;;;4.59;98.67;100568.28;5033334;28;20064;-75
2022/02/21 03:17:36;;;;;;;26.77;12.55;;;;;;;4.53;99.02;100556.00;5033865;28;20040;-76
2022/02/21 03:20:02;;;;;;;22.77;13.45;;;;;;;4.64;98.63;100566.91;5033483;28;20468;-76
2022/02/21 03:22:28;;;;;;;26.10;13.55;;;;;;;4.57;98.44;100570.72;5033536;28;20388;-74
2022/02/21 03:24:53;;;;;;;20.77;12.93;;;;;;;4.56;99.17;100565.53;5033246;28;20104;-79
2022/02/21 03:27:19;;;;;;;23.20;12.90;;;;;;;4.56;99.37;100573.19;5033160;28;20484;-73
2022/02/21 03:29:44;;;;;;;22.73;12.40;;;;;;;4.52;99.09;100556.78;5033136;28;20047;-80
2022/02/21 03:32:10;;;;;;;23.52;12.20;;;;;;;4.69;99.02;100570.63;5015534;28;20095;-76
2022/02/21 03:34:35;;;;;;;23.08;12.93;;;;;;;4.80;99.03;100573.84;5033271;28;20036;-74
2022/02/21 03:37:01;;;;;;;24.85;12.65;;;;;;;4.59;98.27;100533.34;5033033;28;20408;-75
2022/02/21 03:39:26;;;;;;;23.27;12.60;;;;;;;4.85;97.88;100562.22;5033019;28;20099;-76
2022/02/21 03:41:52;;;;;;;20.08;13.23;;;;;;;5.00;98.16;100564.84;5033209;28;20037;-77
2022/02/21 03:44:17;;;;;;;29.27;14.00;;;;;;;5.02;97.38;100551.34;5014972;28;20057;-74
2022/02/21 03:46:43;;;;;;;23.05;13.32;;;;;;;5.18;96.64;100562.50;5015447;28;20117;-77
2022/02/21 03:49:09;;;;;;;24.33;13.65;;;;;;;5.21;95.92;100560.13;5032785;28;20053;-77
2022/02/21 03:51:35;;;;;;;19.90;12.30;;;;;;;5.26;95.46;100566.41;5013937;28;20611;-79
2022/02/21 03:54:00;;;;;;;24.38;13.13;;;;;;;5.28;95.14;100546.91;5032777;28;20032;-76
2022/02/21 03:56:25;;;;;;;21.92;13.50;;;;;;;5.45;94.52;100557.25;5032567;28;20689;-74
2022/02/21 03:58:51;;;;;;;26.52;12.50;;;;;;;5.53;93.87;100555.13;5032459;28;20030;-74
2022/02/21 04:01:17;;;;;;;22.67;13.00;;;;;;;5.48;94.00;100557.41;5032730;28;20044;-74
2022/02/21 04:03:42;;;;;;;19.77;12.73;;;;;;;5.29;94.60;100553.78;5032447;28;20033;-76
2022/02/21 04:06:08;;;;;;;22.23;12.40;;;;;;;5.24;94.68;100536.38;5024264;28;20025;-77
2022/02/21 04:08:33;;;;;;;22.25;11.90;;;;;;;5.00;94.83;100488.94;5017332;28;20497;-76
2022/02/21 04:10:59;;;;;;;27.63;13.40;;;;;;;5.14;94.85;100528.16;5014239;28;20029;-77
2022/02/21 04:13:24;;;;;;;25.13;13.32;;;;;;;4.90;95.33;100485.72;5025577;28;20029;-76
2022/02/21 04:15:50;;;;;;;25.92;12.07;;;;;;;5.04;95.30;100507.06;5026609;28;20037;-77
2022/02/21 04:18:16;;;;;;;23.90;13.60;;;;;;;5.14;95.02;100514.47;5017038;28;20176;-77
2022/02/21 04:20:42;;;;;;;20.25;13.55;;;;;;;5.21;94.32;100513.16;5012425;28;20072;-76
2022/02/21 04:23:07;;;;;;;21.73;12.50;;;;;;;5.18;95.19;100519.88;5012003;28;20026;-74
2022/02/21 04:25:33;;;;;;;26.83;14.07;;;;;;;5.11;95.23;100515.19;5011565;28;20041;-74
2022/02/21 04:27:58;;;;;;;25.52;15.07;;;;;;;5.03;95.26;100506.16;5012153;28;20068;-76
2022/02/21 04:30:27;;;;;;;22.13;14.27;;;;;;;5.14;95.25;100514.47;5012191;28;20473;-76
2022/02/21 04:32:52;;;;;;;32.75;17.30;;;;;;;5.09;95.85;100510.78;5012452;28;20404;-76
2022/02/21 04:35:20;;;;;;;27.33;17.70;;;;;;;5.15;95.77;100508.56;5012078;28;20034;-79
2022/02/21 04:37:46;;;;;;;29.50;17.23;;;;;;;4.91;94.91;100464.47;5012203;28;20385;-79
2022/02/21 04:40:16;;;;;;;31.50;18.33;;;;;;;5.15;95.26;100506.00;5012133;28;20069;-77
2022/02/21 04:42:41;;;;;;;;;;;;;;;5.06;95.74;100511.47;5012328;28;20030;-75
2022/02/21 04:45:07;;;;;;;32.22;14.60;;;;;;;4.90;97.10;100512.22;4994523;28;20389;-74
2022/02/21 04:47:33;;;;;;;26.73;15.02;;;;;;;4.82;97.63;100508.31;5012217;28;20044;-76
2022/02/21 04:49:59;;;;;;;25.88;15.23;;;;;;;4.81;98.41;100527.00;4994382;28;20030;-74
2022/02/21 04:52:24;;;;;;;29.00;15.25;;;;;;;4.69;98.95;100533.13;5011705;28;20085;-74
2022/02/21 04:54:50;;;;;;;28.50;14.95;;;;;;;4.62;100.00;100528.44;5012529;28;20144;-74
2022/02/21 04:57:15;;;;;;;21.58;15.63;;;;;;;4.54;99.99;100501.50;5013615;28;20405;-75
2022/02/21 04:59:40;;;;;;;32.20;19.42;;;;;;;4.73;99.68;100521.41;5017735;28;20026;-76
2022/02/21 05:02:07;;;;;;;40.95;23.73;;;;;;;4.85;99.20;100521.28;5014528;28;20029;-78
2022/02/21 05:04:33;;;;;;;46.42;29.90;;;;;;;4.88;98.97;100510.38;5013575;28;20032;-75
2022/02/21 05:06:59;;;;;;;30.73;17.55;;;;;;;4.63;99.28;100481.59;5014818;28;20026;-73
2022/02/21 05:09:24;;;;;;;25.17;16.73;;;;;;;4.71;99.78;100492.31;5013145;28;20531;-78
2022/02/21 05:11:50;;;;;;;26.70;14.63;;;;;;;4.89;99.70;100517.25;5011387;28;20444;-75
2022/02/21 05:14:15;;;;;;;35.22;15.95;;;;;;;4.86;99.84;100518.81;4994784;28;20084;-78
2022/02/21 05:16:41;;;;;;;30.02;14.75;;;;;;;4.85;100.00;100513.63;5009667;28;20047;-76
2022/02/21 05:19:06;;;;;;;34.22;15.98;;;;;;;4.88;99.71;100516.34;5010908;28;20042;-78
2022/02/21 05:21:32;;;;;;;35.05;21.10;;;;;;;5.00;99.32;100526.44;4999578;28;20034;-75
2022/02/21 05:23:58;;;;;;;35.97;21.85;;;;;;;4.99;99.40;100530.66;5003872;28;20040;-79
2022/02/21 05:26:26;;;;;;;32.05;20.63;;;;;;;4.91;99.38;100506.31;5024842;28;20064;-75
2022/02/21 05:28:52;;;;;;;32.80;20.02;;;;;;;5.04;99.34;100522.41;5031418;28;20033;-76
2022/02/21 05:31:18;;;;;;;69.47;39.15;;;;;;;4.97;99.72;100521.13;5031482;28;20037;-75
2022/02/21 05:33:44;;;;;;;63.08;38.75;;;;;;;5.03;99.73;100516.38;5031198;28;20037;-76
2022/02/21 05:36:10;;;;;;;44.65;26.48;;;;;;;5.01;99.56;100500.09;5030593;28;20033;-74
2022/02/21 05:38:35;;;;;;;38.55;22.48;;;;;;;4.93;99.28;100468.91;5031079;28;20515;-77
2022/02/21 05:41:01;;;;;;;33.00;18.60;;;;;;;5.15;98.98;100512.00;5031037;28;20040;-74
2022/02/21 05:43:26;;;;;;;29.83;17.92;;;;;;;5.29;98.86;100530.72;5031561;28;20029;-76
2022/02/21 05:45:52;;;;;;;41.50;23.73;;;;;;;5.31;99.11;100528.28;5030951;28;20042;-74
2022/02/21 05:48:17;;;;;;;43.80;22.35;;;;;;;5.08;99.52;100488.53;5030870;28;20033;-76
2022/02/21 05:50:43;;;;;;;46.03;22.13;;;;;;;5.39;99.25;100528.72;5031032;28;20039;-75
2022/02/21 05:53:08;;;;;;;30.02;18.63;;;;;;;5.42;98.59;100532.34;5031125;28;20076;-76
2022/02/21 05:55:34;;;;;;;36.58;22.35;;;;;;;5.41;98.16;100524.56;5030476;28;20073;-76
2022/02/21 05:57:59;;;;;;;26.63;17.77;;;;;;;5.47;98.26;100538.63;5030814;28;20033;-77
2022/02/21 06:00:26;;;;;;;29.17;16.52;;;;;;;5.54;98.16;100546.66;5030835;28;20108;-75
2022/02/21 06:02:52;;;;;;;25.90;16.75;;;;;;;5.15;98.03;100506.88;5031046;28;20111;-73
2022/02/21 06:05:18;;;;;;;35.83;19.00;;;;;;;5.17;97.99;100537.69;5030924;28;20077;-73
2022/02/21 06:07:44;;;;;;;25.48;17.85;;;;;;;5.19;98.87;100541.22;5012001;28;20041;-74
2022/02/21 06:10:10;;;;;;;31.58;17.17;;;;;;;4.95;99.29;100518.50;5030425;28;20037;-76
2022/02/21 06:12:35;;;;;;;26.50;16.27;;;;;;;4.88;99.73;100541.94;5012937;28;20029;-76
2022/02/21 06:15:01;;;;;;;35.75;16.83;;;;;;;4.78;99.97;100517.47;5030549;28;20083;-76
2022/02/21 06:17:29;;;;;;;30.90;17.98;;;;;;;4.81;99.77;100519.31;5030531;28;20030;-73
2022/02/21 06:19:55;;;;;;;23.02;16.48;;;;;;;4.93;99.93;100535.41;5030831;28;20111;-74
2022/02/21 06:22:21;;;;;;;25.73;18.10;;;;;;;4.77;100.00;100505.50;5030847;28;20029;-73
2022/02/21 06:24:47;;;;;;;28.45;17.90;;;;;;;5.00;100.00;100522.22;5030425;28;20049;-74
2022/02/21 06:27:13;;;;;;;26.73;16.77;;;;;;;4.88;99.11;100472.88;5030439;28;20029;-74
2022/02/21 06:29:39;;;;;;;22.58;16.50;;;;;;;5.32;97.92;100524.91;5030455;28;20664;-73
2022/02/21 06:32:05;;;;;;;26.83;17.25;;;;;;;5.45;96.96;100517.16;5030447;28;20029;-74
2022/02/21 06:34:31;;;;;;;28.73;17.58;;;;;;;5.31;96.07;100477.97;5030479;28;20037;-76
2022/02/21 06:36:56;;;;;;;28.65;18.42;;;;;;;5.58;95.81;100495.72;5030383;28;20041;-76
2022/02/21 06:39:42;;;;;;;27.33;18.10;;;;;;;5.58;95.34;100489.69;5030464;28;20041;-76
2022/02/21 06:42:07;;;;;;;29.27;19.50;;;;;;;5.43;95.00;100456.41;4988632;28;20081;-74
2022/02/21 06:44:33;;;;;;;29.58;19.15;;;;;;;5.70;94.36;100482.72;4988549;28;20070;-74
2022/02/21 06:46:58;;;;;;;28.13;19.33;;;;;;;5.82;93.69;100491.09;4989124;28;20042;-73
2022/02/21 06:49:24;;;;;;;31.33;20.25;;;;;;;5.86;93.99;100487.03;4992501;28;20034;-73
2022/02/21 06:51:49;;;;;;;33.35;21.10;;;;;;;5.85;93.98;100477.56;4992000;28;20068;-74
2022/02/21 06:54:15;;;;;;;24.67;17.58;;;;;;;5.81;97.36;100475.66;4991797;28;20042;-77
2022/02/21 06:56:40;;;;;;;31.05;18.13;;;;;;;5.58;99.36;100435.91;4992346;28;20082;-74
2022/02/21 06:59:06;;;;;;;30.30;17.63;;;;;;;5.77;98.45;100454.09;4992458;28;20497;-75
2022/02/21 07:01:32;;;;;;;35.03;18.80;;;;;;;5.86;98.35;100463.97;4992328;28;20063;-74
2022/02/21 07:03:58;;;;;;;26.08;18.88;;;;;;;6.00;98.16;100472.47;4992318;28;20568;-74
2022/02/21 07:06:23;;;;;;;34.42;21.40;;;;;;;6.08;97.75;100458.41;4959460;28;20038;-77
2022/02/21 07:08:49;;;;;;;35.40;18.42;;;;;;;6.19;96.76;100466.66;4992206;28;20054;-77
2022/02/21 07:11:14;;;;;;;34.67;20.10;;;;;;;6.22;96.00;100464.28;4992117;28;20033;-75
2022/02/21 07:13:40;;;;;;;25.55;17.45;;;;;;;6.15;96.41;100472.41;4972203;28;20119;-74
2022/02/21 07:16:05;;;;;;;29.75;18.58;;;;;;;6.07;96.54;100454.06;5033930;28;20036;-76
2022/02/21 07:18:31;;;;;;;30.25;19.17;;;;;;;6.22;94.98;100458.25;5011186;28;20037;-74
2022/02/21 07:20:57;;;;;;;25.95;18.13;;;;;;;6.32;94.73;100481.91;5011426;28;20129;-78
2022/02/21 07:23:22;;;;;;;26.75;19.08;;;;;;;6.20;95.39;100480.38;5011264;28;20029;-74
2022/02/21 07:25:48;;;;;;;33.03;17.65;;;;;;;6.03;96.94;100444.44;5011352;28;20030;-74
2022/02/21 07:28:15;;;;;;;27.67;18.00;;;;;;;6.13;96.44;100464.66;4994894;28;20042;-74
2022/02/21 07:30:41;;;;;;;30.27;18.70;;;;;;;6.31;96.57;100477.56;5007926;28;20046;-73
2022/02/21 07:33:08;;;;;;;35.22;19.50;;;;;;;6.10;95.11;100448.22;4999815;28;20068;-74
2022/02/21 07:35:33;;;;;;;29.73;18.40;;;;;;;6.26;95.56;100473.00;4996182;28;20040;-75
2022/02/21 07:37:58;;;;;;;30.92;19.30;;;;;;;6.23;95.11;100460.00;4993857;28;20030;-77
2022/02/21 07:40:26;;;;;;;35.33;18.48;;;;;;;6.34;95.05;100468.28;4993856;28;20089;-79
2022/02/21 07:42:53;;;;;;;34.05;19.92;;;;;;;6.21;94.78;100454.81;4991286;28;20078;-77
2022/02/21 07:45:21;;;;;;;33.03;19.80;;;;;;;6.40;94.79;100463.50;4991264;28;20473;-74
2022/02/21 07:47:51;;;;;;;35.03;19.88;;;;;;;6.57;94.20;100462.72;5007443;28;20036;-77
2022/02/21 07:50:19;;;;;;;37.83;19.88;;;;;;;6.43;93.99;100423.50;5011071;28;20128;-77
2022/02/21 07:52:45;;;;;;;31.35;19.85;;;;;;;6.68;93.44;100459.81;5010761;28;20501;-74
2022/02/21 07:55:12;;;;;;;31.27;19.85;;;;;;;6.42;94.00;100408.06;5014811;28;20120;-75
2022/02/21 07:57:41;;;;;;;43.08;21.25;;;;;;;6.76;94.44;100455.97;5033082;28;20026;-75
2022/02/21 08:00:09;;;;;;;28.67;18.30;;;;;;;6.85;94.98;100453.00;4981820;28;20576;-77
2022/02/21 08:02:35;;;;;;;28.73;19.75;;;;;;;6.88;94.83;100442.88;5032705;28;20100;-77
2022/02/21 08:05:01;;;;;;;35.03;18.67;;;;;;;6.93;94.46;100437.19;5032973;28;20760;-74
2022/02/21 08:07:26;;;;;;;25.73;18.13;;;;;;;6.91;95.27;100441.34;5032832;28;20035;-77
2022/02/21 08:09:52;;;;;;;24.90;17.30;;;;;;;6.86;96.18;100429.13;5032811;28;20107;-76
2022/02/21 08:12:17;;;;;;;29.25;18.40;;;;;;;6.80;96.77;100406.56;5031338;28;20112;-76
2022/02/21 08:14:43;;;;;;;31.33;19.52;;;;;;;6.64;96.22;100371.53;5027299;28;20053;-78
2022/02/21 08:17:08;;;;;;;34.83;20.50;;;;;;;6.92;96.24;100411.47;5032427;28;20033;-77
2022/02/21 08:19:34;;;;;;;34.55;20.08;;;;;;;6.99;97.23;100399.81;5032429;28;20052;-78
2022/02/21 08:21:59;;;;;;;33.28;20.52;;;;;;;7.00;99.39;100375.91;5032459;28;20025;-78
2022/02/21 08:24:25;;;;;;;36.63;21.30;;;;;;;7.21;99.49;100392.34;5014577;28;20033;-78
2022/02/21 08:26:50;;;;;;;35.72;19.92;;;;;;;7.28;100.00;100366.19;5032413;28;20040;-78
2022/02/21 08:29:15;;;;;;;42.03;21.65;;;;;;;7.25;100.00;100330.09;5017147;28;20038;-78
2022/02/21 08:31:44;;;;;;;45.47;22.77;;;;;;;7.56;100.00;100370.09;5012382;28;20057;-78
2022/02/21 08:34:10;;;;;;;39.28;21.92;;;;;;;7.58;100.00;100367.59;5012278;28;20037;-78
2022/02/21 08:36:35;;;;;;;40.53;20.60;;;;;;;7.59;100.00;100351.38;5012263;28;20037;-78
2022/02/21 08:39:01;;;;;;;40.42;22.65;;;;;;;7.74;100.00;100353.78;5012532;28;20030;-78
2022/02/21 08:41:26;;;;;;;52.28;24.35;;;;;;;7.82;100.00;100349.00;5012206;28;20036;-78
2022/02/21 08:43:52;;;;;;;42.65;22.90;;;;;;;7.99;100.00;100353.19;5012161;28;20029;-78
2022/02/21 08:46:17;;;;;;;38.85;20.52;;;;;;;7.90;100.00;100329.63;5012085;28;20030;-78
2022/02/21 08:48:43;;;;;;;40.85;20.25;;;;;;;8.19;100.00;100361.81;5011928;28;20041;-78
2022/02/21 08:51:08;;;;;;;43.65;19.83;;;;;;;8.15;100.00;100357.34;5012411;28;20473;-78
2022/02/21 08:53:34;;;;;;;37.78;20.38;;;;;;;8.32;100.00;100368.38;5029767;28;20057;-80
2022/02/21 08:55:59;;;;;;;40.63;21.35;;;;;;;8.41;100.00;100362.75;5031665;28;20498;-81
2022/02/21 08:58:25;;;;;;;41.42;20.40;;;;;;;8.48;100.00;100359.69;5029824;28;20030;-75
2022/02/21 09:00:50;;;;;;;42.35;21.23;;;;;;;8.35;100.00;100323.91;5013756;28;20033;-76
2022/02/21 09:03:16;;;;;;;38.17;20.73;;;;;;;8.66;100.00;100335.53;5030273;28;20029;-75
2022/02/21 09:05:41;;;;;;;41.17;21.48;;;;;;;8.83;100.00;100333.69;5030086;28;20597;-77
2022/02/21 09:08:07;;;;;;;35.80;20.25;;;;;;;8.96;100.00;100340.22;5030366;28;20081;-78
2022/02/21 09:10:33;;;;;;;37.80;20.00;;;;;;;9.11;100.00;100333.13;5030110;28;20025;-79
2022/02/21 09:13:00;;;;;;;40.88;19.77;;;;;;;9.41;100.00;100335.19;5030215;28;20487;-79
2022/02/21 09:15:26;;;;;;;36.10;19.20;;;;;;;9.28;100.00;100271.97;5030045;28;20040;-76
2022/02/21 09:17:53;;;;;;;36.15;18.88;;;;;;;9.49;100.00;100273.63;5029477;28;20041;-79
2022/02/21 09:20:18;;;;;;;40.08;19.88;;;;;;;9.77;100.00;100296.19;5030115;28;20057;-77
2022/02/21 09:22:45;;;;;;;36.40;20.40;;;;;;;10.12;100.00;100322.38;5030177;28;20033;-78
2022/02/21 09:25:11;;;;;;;37.35;18.80;;;;;;;10.31;100.00;100307.56;5029855;28;20603;-76
2022/02/21 09:27:37;;;;;;;33.03;17.25;;;;;;;10.30;100.00;100249.03;5026824;28;20115;-76
2022/02/21 09:30:04;;;;;;;32.13;17.00;;;;;;;10.52;100.00;100279.94;5029692;28;20484;-76
2022/02/21 09:32:30;;;;;;;33.15;16.00;;;;;;;10.67;100.00;100287.31;5029858;28;20056;-75
2022/02/21 09:34:56;;;;;;;34.28;19.38;;;;;;;10.78;100.00;100277.38;5028975;28;20782;-80
2022/02/21 09:37:22;;;;;;;34.35;18.65;;;;;;;10.79;100.00;100271.38;5030130;28;20029;-77
2022/02/21 09:39:48;;;;;;;42.25;18.25;;;;;;;10.90;100.00;100276.88;5030181;28;20396;-77
2022/02/21 09:42:13;;;;;;;33.53;18.00;;;;;;;10.89;100.00;100238.09;5029042;28;20040;-76
2022/02/21 09:44:38;;;;;;;32.55;16.80;;;;;;;11.22;100.00;100271.00;5031083;28;20498;-76
2022/02/21 09:47:06;;;;;;;30.35;16.98;;;;;;;11.26;98.81;100265.06;5030763;28;20044;-77
2022/02/21 09:49:31;;;;;;;33.25;18.08;;;;;;;11.29;99.32;100247.06;5030236;28;20060;-75
2022/02/21 09:51:57;;;;;;;29.02;16.75;;;;;;;11.43;100.00;100250.97;5030708;28;20092;-75
2022/02/21 09:54:24;;;;;;;32.35;18.17;;;;;;;11.42;100.00;100258.66;5029244;28;20469;-79
2022/02/21 09:56:51;;;;;;;31.23;16.52;;;;;;;11.36;100.00;100215.41;5029515;28;20077;-78
2022/02/21 09:59:17;;;;;;;29.67;16.92;;;;;;;11.57;100.00;100248.78;5011887;28;20021;-78
2022/02/21 10:01:47;;;;;;;31.73;17.00;;;;;;;11.55;100.00;100239.22;5029341;28;20022;-79
2022/02/21 10:04:20;;;;;;;30.88;15.02;;;;;;;11.38;100.00;100184.47;5029094;28;20033;-79
2022/02/21 10:06:54;;;;;;;26.38;13.45;;;;;;;11.41;100.00;100215.56;4979301;28;20493;-76
2022/02/21 10:09:22;;;;;;;21.70;12.27;;;;;;;11.51;100.00;100212.41;5030680;28;20102;-82
2022/02/21 10:11:49;;;;;;;24.67;13.13;;;;;;;11.70;100.00;100207.75;5030219;28;20103;-81
2022/02/21 10:14:19;;;;;;;20.02;13.25;;;;;;;11.69;100.00;100206.00;5012528;28;20025;-79
2022/02/21 10:16:46;;;;;;;23.92;12.93;;;;;;;11.64;100.00;100191.25;5029169;28;20502;-80
2022/02/21 10:19:20;;;;;;;21.52;13.23;;;;;;;11.90;100.00;100188.50;5029618;28;20022;-83
2022/02/21 10:22:04;;;;;;;19.25;13.10;;;;;;;12.24;99.48;100188.56;5029430;28;20029;-83
2022/02/21 10:24:36;;;;;;;14.35;8.57;;;;;;;12.35;96.62;100175.84;5033479;28;20029;-82
2022/02/21 10:27:08;;;;;;;18.05;12.18;;;;;;;12.64;95.76;100165.34;5016115;28;20121;-84
2022/02/21 10:30:00;;;;;;;19.60;11.20;;;;;;;12.75;95.20;100153.53;5033489;28;20022;-84
2022/02/21 10:32:33;;;;;;;14.45;9.55;;;;;;;12.93;91.95;100150.47;5033347;28;20526;-84
2022/02/21 10:35:13;;;;;;;12.50;8.60;;;;;;;13.03;90.36;100123.03;5033336;28;20025;-84
2022/02/21 10:37:59;;;;;;;12.93;8.52;;;;;;;13.16;90.29;100148.38;5033335;28;20076;-80
2022/02/21 10:40:27;;;;;;;12.00;7.38;;;;;;;13.23;89.16;100141.59;5034315;28;20036;-80
2022/02/21 10:43:09;;;;;;;14.98;8.38;;;;;;;13.26;87.68;100132.16;5034371;28;20037;-78
2022/02/21 10:45:36;;;;;;;11.50;7.70;;;;;;;13.21;87.10;100094.06;5015360;28;20048;-78
2022/02/21 10:48:07;;;;;;;14.13;8.55;;;;;;;13.54;85.18;100124.97;5033699;28;20052;-76
2022/02/21 10:50:53;;;;;;;10.40;7.55;;;;;;;13.53;82.79;100088.63;5033995;28;20395;-75
2022/02/21 10:53:23;;;;;;;14.48;8.45;;;;;;;13.85;80.96;100106.50;5034075;28;20054;-75
2022/02/21 10:55:54;;;;;;;13.90;8.25;;;;;;;14.03;78.28;100106.84;5033501;28;20040;-78
2022/02/21 10:58:23;;;;;;;9.57;6.82;;;;;;;14.19;72.71;100082.00;5034087;28;20404;-79
2022/02/21 11:00:49;;;;;;;;;;;;;;;14.27;77.64;100100.28;5026258;28;20030;-78
2022/02/21 11:03:20;;;;;;;11.77;7.65;;;;;;;14.25;72.86;100073.41;5013836;28;19909;-78
2022/02/21 11:05:47;;;;;;;15.18;8.95;;;;;;;14.36;73.17;100073.59;5013877;28;20044;-78
2022/02/21 11:08:14;;;;;;;12.65;8.77;;;;;;;14.62;70.47;100076.56;5021281;28;20128;-83
2022/02/21 11:10:46;;;;;;;14.80;7.38;;;;;;;14.50;69.54;100048.69;5033754;28;20067;-78
2022/02/21 11:13:15;;;;;;;10.73;7.93;;;;;;;14.54;70.82;100066.06;5033743;28;20030;-83